sensor_id;sensor_type;location;lat;lon;timestamp;pressure;altitude;pressure_sealevel;temperature;humidity
46836;BME280;32573;51.290;6.926;2023-12-20T00:00:46;100082.84;;;8.88;100.00
46836;BME280;32573;51.290;6.926;2023-12-20T00:03:14;100083.63;;;8.85;100.00
46836;BME280;32573;51.290;6.926;2023-12-20T00:05:43;100092.31;;;8.84;100.00
46836;BME280;32573;51.290;6.926;2023-12-20T00:08:12;100092.25;;;8.83;100.00
46836;BME280;32573;51.290;6.926;2023-12-20T00:10:40;100090.50;;;8.83;100.00
46836;BME280;32573;51.290;6.926;2023-12-20T00:13:08;100090.50;;;8.83;100.00
46836;BME280;32573;51.290;6.926;2023-12-20T00:15:37;100095.69;;;8.82;100.00
46836;BME280;32573;51.290;6.926;2023-12-20T00:18:05;100100.84;;;8.80;100.00
46836;BME280;32573;51.290;6.926;2023-12-20T00:20:34;100099.09;;;8.79;100.00
46836;BME280;32573;51.290;6.926;2023-12-20T00:23:03;100095.63;;;8.80;100.00
46836;BME280;32573;51.290;6.926;2023-12-20T00:25:32;100096.47;;;8.79;100.00
46836;BME280;32573;51.290;6.926;2023-12-20T00:28:00;100108.66;;;8.79;100.00
46836;BME280;32573;51.290;6.926;2023-12-20T00:30:29;100109.53;;;8.79;100.00
46836;BME280;32573;51.290;6.926;2023-12-20T00:32:57;100103.38;;;8.77;100.00
46836;BME280;32573;51.290;6.926;2023-12-20T00:35:25;100108.59;;;8.77;100.00
46836;BME280;32573;51.290;6.926;2023-12-20T00:37:54;100112.97;;;8.78;100.00
46836;BME280;32573;51.290;6.926;2023-12-20T00:40:22;100111.19;;;8.77;100.00
46836;BME280;32573;51.290;6.926;2023-12-20T00:42:52;100110.31;;;8.77;100.00
46836;BME280;32573;51.290;6.926;2023-12-20T00:45:20;100122.41;;;8.75;100.00
46836;BME280;32573;51.290;6.926;2023-12-20T00:47:48;100114.53;;;8.73;100.00
46836;BME280;32573;51.290;6.926;2023-12-20T00:50:17;100113.53;;;8.70;100.00
46836;BME280;32573;51.290;6.926;2023-12-20T00:52:45;100119.53;;;8.67;100.00
46836;BME280;32573;51.290;6.926;2023-12-20T00:55:13;100121.28;;;8.67;100.00
46836;BME280;32573;51.290;6.926;2023-12-20T00:57:42;100125.56;;;8.66;100.00
46836;BME280;32573;51.290;6.926;2023-12-20T01:00:12;100116.00;;;8.65;100.00
46836;BME280;32573;51.290;6.926;2023-12-20T01:02:41;100118.59;;;8.65;100.00
46836;BME280;32573;51.290;6.926;2023-12-20T01:05:09;100122.06;;;8.64;100.00
46836;BME280;32573;51.290;6.926;2023-12-20T01:07:37;100128.09;;;8.63;100.00
46836;BME280;32573;51.290;6.926;2023-12-20T01:10:06;100128.09;;;8.63;100.00
46836;BME280;32573;51.290;6.926;2023-12-20T01:12:35;100125.47;;;8.63;100.00
46836;BME280;32573;51.290;6.926;2023-12-20T01:15:05;100122.00;;;8.62;100.00
46836;BME280;32573;51.290;6.926;2023-12-20T01:17:34;100128.09;;;8.63;100.00
46836;BME280;32573;51.290;6.926;2023-12-20T01:20:03;100128.09;;;8.63;100.00
46836;BME280;32573;51.290;6.926;2023-12-20T01:22:32;100126.31;;;8.62;100.00
46836;BME280;32573;51.290;6.926;2023-12-20T01:25:03;100124.53;;;8.61;100.00
46836;BME280;32573;51.290;6.926;2023-12-20T01:27:31;100134.09;;;8.60;100.00
46836;BME280;32573;51.290;6.926;2023-12-20T01:29:59;100134.00;;;8.57;100.00
46836;BME280;32573;51.290;6.926;2023-12-20T01:32:27;100133.91;;;8.56;100.00
46836;BME280;32573;51.290;6.926;2023-12-20T01:34:57;100145.19;;;8.55;100.00
46836;BME280;32573;51.290;6.926;2023-12-20T01:37:29;100135.63;;;8.54;100.00
46836;BME280;32573;51.290;6.926;2023-12-20T01:39:57;100142.50;;;8.52;100.00
46836;BME280;32573;51.290;6.926;2023-12-20T01:42:25;100135.38;;;8.48;100.00
46836;BME280;32573;51.290;6.926;2023-12-20T01:44:53;100149.31;;;8.48;100.00
46836;BME280;32573;51.290;6.926;2023-12-20T01:47:22;100147.66;;;8.50;100.00
46836;BME280;32573;51.290;6.926;2023-12-20T01:49:50;100152.81;;;8.49;100.00
46836;BME280;32573;51.290;6.926;2023-12-20T01:52:20;100156.31;;;8.49;100.00
46836;BME280;32573;51.290;6.926;2023-12-20T01:54:48;100152.75;;;8.47;100.00
46836;BME280;32573;51.290;6.926;2023-12-20T01:57:17;100149.28;;;8.47;100.00
46836;BME280;32573;51.290;6.926;2023-12-20T01:59:46;100143.09;;;8.45;100.00
46836;BME280;32573;51.290;6.926;2023-12-20T02:02:14;100150.94;;;8.45;100.00
46836;BME280;32573;51.290;6.926;2023-12-20T02:04:43;100157.81;;;8.42;100.00
46836;BME280;32573;51.290;6.926;2023-12-20T02:07:11;100158.66;;;8.41;100.00
46836;BME280;32573;51.290;6.926;2023-12-20T02:09:41;100153.25;;;8.38;100.00
46836;BME280;32573;51.290;6.926;2023-12-20T02:12:10;100154.94;;;8.36;100.00
46836;BME280;32573;51.290;6.926;2023-12-20T02:14:38;100157.41;;;8.33;100.00
46836;BME280;32573;51.290;6.926;2023-12-20T02:17:07;100147.72;;;8.29;100.00
46836;BME280;32573;51.290;6.926;2023-12-20T02:19:35;100146.69;;;8.24;100.00
46836;BME280;32573;51.290;6.926;2023-12-20T02:22:08;100143.91;;;8.19;100.00
46836;BME280;32573;51.290;6.926;2023-12-20T02:24:37;100150.69;;;8.16;100.00
46836;BME280;32573;51.290;6.926;2023-12-20T02:27:06;100161.88;;;8.12;100.00
46836;BME280;32573;51.290;6.926;2023-12-20T02:29:35;100148.56;;;8.06;100.00
46836;BME280;32573;51.290;6.926;2023-12-20T02:32:04;100158.00;;;8.02;100.00
46836;BME280;32573;51.290;6.926;2023-12-20T02:34:32;100157.00;;;7.98;100.00
46836;BME280;32573;51.290;6.926;2023-12-20T02:37:00;100158.59;;;7.95;100.00
46836;BME280;32573;51.290;6.926;2023-12-20T02:39:30;100168.84;;;7.90;100.00
46836;BME280;32573;51.290;6.926;2023-12-20T02:41:58;100168.75;;;7.87;100.00
46836;BME280;32573;51.290;6.926;2023-12-20T02:44:26;100166.03;;;7.84;100.00
46836;BME280;32573;51.290;6.926;2023-12-20T02:46:55;100158.06;;;7.81;100.00
46836;BME280;32573;51.290;6.926;2023-12-20T02:49:23;100164.97;;;7.79;100.00
46836;BME280;32573;51.290;6.926;2023-12-20T02:51:51;100158.78;;;7.77;100.00
46836;BME280;32573;51.290;6.926;2023-12-20T02:54:19;100148.25;;;7.74;100.00
46836;BME280;32573;51.290;6.926;2023-12-20T02:56:49;100154.28;;;7.73;100.00
46836;BME280;32573;51.290;6.926;2023-12-20T02:59:17;100147.31;;;7.72;100.00
46836;BME280;32573;51.290;6.926;2023-12-20T03:01:46;100159.50;;;7.73;100.00
46836;BME280;32573;51.290;6.926;2023-12-20T03:04:14;100163.06;;;7.75;100.00
46836;BME280;32573;51.290;6.926;2023-12-20T03:06:42;100172.59;;;7.74;100.00
46836;BME280;32573;51.290;6.926;2023-12-20T03:09:11;100173.47;;;7.75;100.00
46836;BME280;32573;51.290;6.926;2023-12-20T03:11:39;100170.94;;;7.76;100.00
46836;BME280;32573;51.290;6.926;2023-12-20T03:14:08;100166.63;;;7.77;100.00
46836;BME280;32573;51.290;6.926;2023-12-20T03:16:37;100164.81;;;7.76;100.00
46836;BME280;32573;51.290;6.926;2023-12-20T03:19:05;100169.16;;;7.75;100.00
46836;BME280;32573;51.290;6.926;2023-12-20T03:21:33;100156.06;;;7.74;100.00
46836;BME280;32573;51.290;6.926;2023-12-20T03:24:01;100163.81;;;7.72;100.00
46836;BME280;32573;51.290;6.926;2023-12-20T03:26:29;100152.53;;;7.72;100.00
46836;BME280;32573;51.290;6.926;2023-12-20T03:28:58;100155.06;;;7.70;100.00
46836;BME280;32573;51.290;6.926;2023-12-20T03:31:27;100159.38;;;7.70;100.00
46836;BME280;32573;51.290;6.926;2023-12-20T03:33:55;100154.16;;;7.70;100.00
46836;BME280;32573;51.290;6.926;2023-12-20T03:36:24;100147.19;;;7.69;100.00
46836;BME280;32573;51.290;6.926;2023-12-20T03:38:52;100157.63;;;7.69;100.00
46836;BME280;32573;51.290;6.926;2023-12-20T03:41:20;100144.53;;;7.67;100.00
46836;BME280;32573;51.290;6.926;2023-12-20T03:43:48;100143.63;;;7.67;100.00
46836;BME280;32573;51.290;6.926;2023-12-20T03:46:17;100136.53;;;7.63;100.00
46836;BME280;32573;51.290;6.926;2023-12-20T03:48:46;100152.91;;;7.60;100.00
46836;BME280;32573;51.290;6.926;2023-12-20T03:51:15;100159.78;;;7.58;100.00
46836;BME280;32573;51.290;6.926;2023-12-20T03:53:43;100150.13;;;7.55;100.00
46836;BME280;32573;51.290;6.926;2023-12-20T03:56:11;100160.44;;;7.52;100.00
46836;BME280;32573;51.290;6.926;2023-12-20T03:58:39;100162.91;;;7.49;100.00
46836;BME280;32573;51.290;6.926;2023-12-20T04:01:09;100156.69;;;7.46;100.00
46836;BME280;32573;51.290;6.926;2023-12-20T04:03:38;100146.22;;;7.44;100.00
46836;BME280;32573;51.290;6.926;2023-12-20T04:06:08;100158.28;;;7.42;100.00
46836;BME280;32573;51.290;6.926;2023-12-20T04:08:37;100151.16;;;7.38;100.00
46836;BME280;32573;51.290;6.926;2023-12-20T04:11:05;100145.06;;;7.38;100.00
46836;BME280;32573;51.290;6.926;2023-12-20T04:13:33;100144.19;;;7.37;100.00
46836;BME280;32573;51.290;6.926;2023-12-20T04:16:01;100144.19;;;7.37;100.00
46836;BME280;32573;51.290;6.926;2023-12-20T04:18:30;100143.25;;;7.35;100.00
46836;BME280;32573;51.290;6.926;2023-12-20T04:20:59;100147.50;;;7.33;100.00
46836;BME280;32573;51.290;6.926;2023-12-20T04:23:28;100155.25;;;7.31;100.00
46836;BME280;32573;51.290;6.926;2023-12-20T04:25:56;100154.34;;;7.31;100.00
46836;BME280;32573;51.290;6.926;2023-12-20T04:28:24;100154.34;;;7.31;100.00
46836;BME280;32573;51.290;6.926;2023-12-20T04:30:53;100156.03;;;7.29;100.00
46836;BME280;32573;51.290;6.926;2023-12-20T04:33:21;100151.69;;;7.29;100.00
46836;BME280;32573;51.290;6.926;2023-12-20T04:35:49;100149.91;;;7.28;100.00
46836;BME280;32573;51.290;6.926;2023-12-20T04:38:18;100154.22;;;7.28;100.00
46836;BME280;32573;51.290;6.926;2023-12-20T04:40:47;100165.53;;;7.28;100.00
46836;BME280;32573;51.290;6.926;2023-12-20T04:43:16;100166.44;;;7.29;100.00
46836;BME280;32573;51.290;6.926;2023-12-20T04:45:44;100170.72;;;7.28;100.00
46836;BME280;32573;51.290;6.926;2023-12-20T04:48:12;100166.44;;;7.29;100.00
46836;BME280;32573;51.290;6.926;2023-12-20T04:50:40;100157.78;;;7.30;100.00
46836;BME280;32573;51.290;6.926;2023-12-20T04:53:09;100159.44;;;7.28;100.00
46836;BME280;32573;51.290;6.926;2023-12-20T04:55:37;100161.06;;;7.26;100.00
46836;BME280;32573;51.290;6.926;2023-12-20T04:58:07;100150.66;;;7.26;100.00
46836;BME280;32573;51.290;6.926;2023-12-20T05:00:35;100188.75;;;7.24;100.00
46836;BME280;32573;51.290;6.926;2023-12-20T05:03:04;100160.97;;;7.23;100.00
46836;BME280;32573;51.290;6.926;2023-12-20T05:05:33;100152.19;;;7.21;100.00
46836;BME280;32573;51.290;6.926;2023-12-20T05:08:01;100153.06;;;7.21;100.00
46836;BME280;32573;51.290;6.926;2023-12-20T05:10:30;100155.75;;;7.23;100.00
46836;BME280;32573;51.290;6.926;2023-12-20T05:12:58;100158.44;;;7.24;100.00
46836;BME280;32573;51.290;6.926;2023-12-20T05:15:27;100159.31;;;7.25;100.00
46836;BME280;32573;51.290;6.926;2023-12-20T05:17:56;100166.28;;;7.26;100.00
46836;BME280;32573;51.290;6.926;2023-12-20T05:20:24;100170.69;;;7.27;100.00
46836;BME280;32573;51.290;6.926;2023-12-20T05:22:52;100150.66;;;7.26;100.00
46836;BME280;32573;51.290;6.926;2023-12-20T05:25:20;100159.31;;;7.25;100.00
46836;BME280;32573;51.290;6.926;2023-12-20T05:27:49;100161.03;;;7.24;100.00
46836;BME280;32573;51.290;6.926;2023-12-20T05:30:17;100162.81;;;7.25;100.00
46836;BME280;32573;51.290;6.926;2023-12-20T05:32:46;100160.19;;;7.25;100.00
46836;BME280;32573;51.290;6.926;2023-12-20T05:35:15;100165.41;;;7.25;100.00
46836;BME280;32573;51.290;6.926;2023-12-20T05:37:44;100162.00;;;7.26;100.00
46836;BME280;32573;51.290;6.926;2023-12-20T05:40:12;100166.28;;;7.26;100.00
46836;BME280;32573;51.290;6.926;2023-12-20T05:42:41;100170.69;;;7.27;100.00
46836;BME280;32573;51.290;6.926;2023-12-20T05:45:10;100168.09;;;7.27;100.00
46836;BME280;32573;51.290;6.926;2023-12-20T05:47:38;100159.31;;;7.25;100.00
46836;BME280;32573;51.290;6.926;2023-12-20T05:50:08;100141.91;;;7.24;100.00
46836;BME280;32573;51.290;6.926;2023-12-20T05:52:37;100148.91;;;7.25;100.00
46836;BME280;32573;51.290;6.926;2023-12-20T05:55:05;100136.69;;;7.24;100.00
46836;BME280;32573;51.290;6.926;2023-12-20T05:57:35;100146.22;;;7.23;100.00
46836;BME280;32573;51.290;6.926;2023-12-20T06:00:03;100157.53;;;7.24;100.00
46836;BME280;32573;51.290;6.926;2023-12-20T06:02:38;100154.03;;;7.23;100.00
46836;BME280;32573;51.290;6.926;2023-12-20T06:05:08;100150.56;;;7.23;100.00
46836;BME280;32573;51.290;6.926;2023-12-20T06:07:36;100165.28;;;7.22;100.00
46836;BME280;32573;51.290;6.926;2023-12-20T06:10:05;100166.03;;;7.20;100.00
46836;BME280;32573;51.290;6.926;2023-12-20T06:12:34;100156.41;;;7.17;100.00
46836;BME280;32573;51.290;6.926;2023-12-20T06:15:03;100152.06;;;7.18;100.00
46836;BME280;32573;51.290;6.926;2023-12-20T06:17:31;100153.81;;;7.17;100.00
46836;BME280;32573;51.290;6.926;2023-12-20T06:19:59;100152.84;;;7.15;100.00
46836;BME280;32573;51.290;6.926;2023-12-20T06:22:30;100158.94;;;7.16;100.00
46836;BME280;32573;51.290;6.926;2023-12-20T06:24:58;100166.81;;;7.17;100.00
46836;BME280;32573;51.290;6.926;2023-12-20T06:27:26;100162.50;;;7.18;100.00
46836;BME280;32573;51.290;6.926;2023-12-20T06:29:55;100168.69;;;7.21;100.00
46836;BME280;32573;51.290;6.926;2023-12-20T06:32:23;100175.63;;;7.21;100.00
46836;BME280;32573;51.290;6.926;2023-12-20T06:34:51;100162.56;;;7.19;100.00
46836;BME280;32573;51.290;6.926;2023-12-20T06:37:20;100163.38;;;7.18;100.00
46836;BME280;32573;51.290;6.926;2023-12-20T06:39:49;100157.22;;;7.16;100.00
46836;BME280;32573;51.290;6.926;2023-12-20T06:42:18;100163.31;;;7.17;100.00
46836;BME280;32573;51.290;6.926;2023-12-20T06:44:46;100166.81;;;7.17;100.00
46836;BME280;32573;51.290;6.926;2023-12-20T06:47:14;100148.59;;;7.17;100.00
46836;BME280;32573;51.290;6.926;2023-12-20T06:49:42;100171.25;;;7.20;100.00
46836;BME280;32573;51.290;6.926;2023-12-20T06:52:10;100165.22;;;7.21;100.00
46836;BME280;32573;51.290;6.926;2023-12-20T06:54:39;100170.41;;;7.21;100.00
46836;BME280;32573;51.290;6.926;2023-12-20T06:57:08;100170.41;;;7.21;100.00
46836;BME280;32573;51.290;6.926;2023-12-20T06:59:38;100178.22;;;7.21;100.00
46836;BME280;32573;51.290;6.926;2023-12-20T07:02:08;100179.09;;;7.21;100.00
46836;BME280;32573;51.290;6.926;2023-12-20T07:04:41;100163.44;;;7.20;100.00
46836;BME280;32573;51.290;6.926;2023-12-20T07:07:09;100170.41;;;7.21;100.00
46836;BME280;32573;51.290;6.926;2023-12-20T07:09:38;100166.09;;;7.21;100.00
46836;BME280;32573;51.290;6.926;2023-12-20T07:12:09;100154.81;;;7.21;100.00
46836;BME280;32573;51.290;6.926;2023-12-20T07:14:37;100168.78;;;7.23;100.00
46836;BME280;32573;51.290;6.926;2023-12-20T07:17:05;100154.91;;;7.24;100.00
46836;BME280;32573;51.290;6.926;2023-12-20T07:19:38;100158.44;;;7.24;100.00
46836;BME280;32573;51.290;6.926;2023-12-20T07:22:07;100163.69;;;7.26;100.00
46836;BME280;32573;51.290;6.926;2023-12-20T07:24:35;100155.88;;;7.26;100.00
46836;BME280;32573;51.290;6.926;2023-12-20T07:27:03;100164.63;;;7.28;100.00
46836;BME280;32573;51.290;6.926;2023-12-20T07:29:33;100150.75;;;7.27;100.00
46836;BME280;32573;51.290;6.926;2023-12-20T07:32:01;100156.84;;;7.28;100.00
46836;BME280;32573;51.290;6.926;2023-12-20T07:34:29;100145.59;;;7.29;100.00
46836;BME280;32573;51.290;6.926;2023-12-20T07:37:00;100162.13;;;7.29;100.00
46836;BME280;32573;51.290;6.926;2023-12-20T07:39:29;100156.13;;;7.32;100.00
46836;BME280;32573;51.290;6.926;2023-12-20T07:41:57;100161.34;;;7.32;100.00
46836;BME280;32573;51.290;6.926;2023-12-20T07:44:25;100157.91;;;7.33;100.00
46836;BME280;32573;51.290;6.926;2023-12-20T07:46:54;100165.78;;;7.34;100.00
46836;BME280;32573;51.290;6.926;2023-12-20T07:49:23;100161.47;;;7.35;100.00
46836;BME280;32573;51.290;6.926;2023-12-20T07:51:51;100161.47;;;7.35;100.00
46836;BME280;32573;51.290;6.926;2023-12-20T07:54:19;100167.56;;;7.35;100.00
46836;BME280;32573;51.290;6.926;2023-12-20T07:56:48;100178.84;;;7.36;100.00
46836;BME280;32573;51.290;6.926;2023-12-20T07:59:17;100166.78;;;7.38;100.00
46836;BME280;32573;51.290;6.926;2023-12-20T08:01:59;100168.59;;;7.39;100.00
46836;BME280;32573;51.290;6.926;2023-12-20T08:04:28;100163.41;;;7.41;100.00
46836;BME280;32573;51.290;6.926;2023-12-20T08:06:56;100156.50;;;7.41;100.00
46836;BME280;32573;51.290;6.926;2023-12-20T08:09:24;100154.72;;;7.40;100.00
46836;BME280;32573;51.290;6.926;2023-12-20T08:11:52;100155.56;;;7.39;100.00
46836;BME280;32573;51.290;6.926;2023-12-20T08:14:21;100155.50;;;7.38;100.00
46836;BME280;32573;51.290;6.926;2023-12-20T08:16:49;100156.38;;;7.38;100.00
46836;BME280;32573;51.290;6.926;2023-12-20T08:19:18;100163.38;;;7.39;100.00
46836;BME280;32573;51.290;6.926;2023-12-20T08:21:47;100159.06;;;7.40;100.00
46836;BME280;32573;51.290;6.926;2023-12-20T08:24:15;100160.78;;;7.39;100.00
46836;BME280;32573;51.290;6.926;2023-12-20T08:26:43;100161.66;;;7.40;100.00
46836;BME280;32573;51.290;6.926;2023-12-20T08:29:13;100159.94;;;7.40;100.00
46836;BME280;32573;51.290;6.926;2023-12-20T08:31:41;100159.06;;;7.40;100.00
46836;BME280;32573;51.290;6.926;2023-12-20T08:34:09;100163.38;;;7.39;100.00
46836;BME280;32573;51.290;6.926;2023-12-20T08:36:40;100165.13;;;7.40;100.00
46836;BME280;32573;51.290;6.926;2023-12-20T08:39:08;100179.91;;;7.41;100.00
46836;BME280;32573;51.290;6.926;2023-12-20T08:41:36;100174.78;;;7.43;100.00
46836;BME280;32573;51.290;6.926;2023-12-20T08:44:04;100172.25;;;7.44;100.00
46836;BME280;32573;51.290;6.926;2023-12-20T08:46:33;100174.88;;;7.44;100.00
46836;BME280;32573;51.290;6.926;2023-12-20T08:49:01;100176.63;;;7.45;100.00
46836;BME280;32573;51.290;6.926;2023-12-20T08:51:29;100175.81;;;7.46;100.00
46836;BME280;32573;51.290;6.926;2023-12-20T08:53:59;100174.91;;;7.46;100.00
46836;BME280;32573;51.290;6.926;2023-12-20T08:56:27;100181.84;;;7.45;100.00
46836;BME280;32573;51.290;6.926;2023-12-20T08:58:55;100174.91;;;7.46;100.00
46836;BME280;32573;51.290;6.926;2023-12-20T09:01:23;100178.44;;;7.46;100.00
46836;BME280;32573;51.290;6.926;2023-12-20T09:03:52;100174.03;;;7.45;100.00
46836;BME280;32573;51.290;6.926;2023-12-20T09:06:20;100174.03;;;7.45;100.00
46836;BME280;32573;51.290;6.926;2023-12-20T09:08:48;100167.94;;;7.45;100.00
46836;BME280;32573;51.290;6.926;2023-12-20T09:11:17;100166.22;;;7.45;100.00
46836;BME280;32573;51.290;6.926;2023-12-20T09:13:46;100160.19;;;7.46;100.00
46836;BME280;32573;51.290;6.926;2023-12-20T09:16:15;100158.41;;;7.45;100.00
46836;BME280;32573;51.290;6.926;2023-12-20T09:18:44;100158.47;;;7.47;100.00
46836;BME280;32573;51.290;6.926;2023-12-20T09:21:12;100150.59;;;7.45;100.00
46836;BME280;32573;51.290;6.926;2023-12-20T09:23:40;100164.50;;;7.46;100.00
46836;BME280;32573;51.290;6.926;2023-12-20T09:26:08;100148.94;;;7.47;100.00
46836;BME280;32573;51.290;6.926;2023-12-20T09:28:38;100165.53;;;7.49;100.00
46836;BME280;32573;51.290;6.926;2023-12-20T09:31:07;100168.13;;;7.49;100.00
46836;BME280;32573;51.290;6.926;2023-12-20T09:33:35;100169.88;;;7.50;100.00
46836;BME280;32573;51.290;6.926;2023-12-20T09:36:05;100164.69;;;7.50;100.00
46836;BME280;32573;51.290;6.926;2023-12-20T09:38:33;100151.66;;;7.50;100.00
46836;BME280;32573;51.290;6.926;2023-12-20T09:41:02;100160.44;;;7.52;100.00
46836;BME280;32573;51.290;6.926;2023-12-20T09:43:35;100167.41;;;7.53;100.00
46836;BME280;32573;51.290;6.926;2023-12-20T09:46:06;100167.41;;;7.53;100.00
46836;BME280;32573;51.290;6.926;2023-12-20T09:48:36;100164.88;;;7.55;100.00
46836;BME280;32573;51.290;6.926;2023-12-20T09:51:04;100156.97;;;7.53;100.00
46836;BME280;32573;51.290;6.926;2023-12-20T09:53:35;100160.50;;;7.54;100.00
46836;BME280;32573;51.290;6.926;2023-12-20T09:56:05;100152.69;;;7.54;100.00
46836;BME280;32573;51.290;6.926;2023-12-20T09:58:36;100152.69;;;7.54;100.00
46836;BME280;32573;51.290;6.926;2023-12-20T10:01:06;100144.91;;;7.55;100.00
46836;BME280;32573;51.290;6.926;2023-12-20T10:03:38;100150.13;;;7.55;100.00
46836;BME280;32573;51.290;6.926;2023-12-20T10:06:07;100157.13;;;7.56;100.00
46836;BME280;32573;51.290;6.926;2023-12-20T10:08:35;100167.53;;;7.56;100.00
46836;BME280;32573;51.290;6.926;2023-12-20T10:11:04;100145.88;;;7.57;100.00
46836;BME280;32573;51.290;6.926;2023-12-20T10:13:33;100170.19;;;7.58;100.00
46836;BME280;32573;51.290;6.926;2023-12-20T10:16:01;100159.84;;;7.60;100.00
46836;BME280;32573;51.290;6.926;2023-12-20T10:18:32;100148.59;;;7.61;100.00
46836;BME280;32573;51.290;6.926;2023-12-20T10:21:06;100149.47;;;7.61;100.00
46836;BME280;32573;51.290;6.926;2023-12-20T10:23:34;100146.94;;;7.63;100.00
46836;BME280;32573;51.290;6.926;2023-12-20T10:26:02;100148.69;;;7.64;100.00
46836;BME280;32573;51.290;6.926;2023-12-20T10:28:33;100144.34;;;7.63;100.00
46836;BME280;32573;51.290;6.926;2023-12-20T10:31:02;100136.53;;;7.63;100.00
46836;BME280;32573;51.290;6.926;2023-12-20T10:33:32;100136.44;;;7.61;100.00
46836;BME280;32573;51.290;6.926;2023-12-20T10:36:01;100131.19;;;7.60;100.00
46836;BME280;32573;51.290;6.926;2023-12-20T10:38:29;100131.19;;;7.60;100.00
46836;BME280;32573;51.290;6.926;2023-12-20T10:40:58;100120.78;;;7.60;100.00
46836;BME280;32573;51.290;6.926;2023-12-20T10:43:27;100119.94;;;7.61;100.00
46836;BME280;32573;51.290;6.926;2023-12-20T10:45:57;100125.16;;;7.61;100.00
46836;BME280;32573;51.290;6.926;2023-12-20T10:48:25;100125.22;;;7.62;100.00
46836;BME280;32573;51.290;6.926;2023-12-20T10:50:59;100119.16;;;7.63;100.00
46836;BME280;32573;51.290;6.926;2023-12-20T10:53:28;100124.44;;;7.65;100.00
46836;BME280;32573;51.290;6.926;2023-12-20T10:55:59;100140.06;;;7.65;100.00
46836;BME280;32573;51.290;6.926;2023-12-20T10:58:29;100113.06;;;7.63;100.00
46836;BME280;32573;51.290;6.926;2023-12-20T11:01:00;100110.47;;;7.63;100.00
46836;BME280;32573;51.290;6.926;2023-12-20T11:03:32;100118.34;;;7.64;100.00
46836;BME280;32573;51.290;6.926;2023-12-20T11:06:08;100126.97;;;7.63;100.00
46836;BME280;32573;51.290;6.926;2023-12-20T11:08:44;100122.66;;;7.64;100.00
46836;BME280;32573;51.290;6.926;2023-12-20T11:11:20;100118.34;;;7.64;100.00
46836;BME280;32573;51.290;6.926;2023-12-20T11:13:55;100111.50;;;7.66;100.00
46836;BME280;32573;51.290;6.926;2023-12-20T11:16:25;100114.13;;;7.68;100.00
46836;BME280;32573;51.290;6.926;2023-12-20T11:19:04;100113.25;;;7.67;100.00
46836;BME280;32573;51.290;6.926;2023-12-20T11:21:34;100100.31;;;7.69;100.00
46836;BME280;32573;51.290;6.926;2023-12-20T11:24:03;100109.81;;;7.68;100.00
46836;BME280;32573;51.290;6.926;2023-12-20T11:26:33;100100.31;;;7.69;100.00
46836;BME280;32573;51.290;6.926;2023-12-20T11:29:29;100095.97;;;7.69;100.00
46836;BME280;32573;51.290;6.926;2023-12-20T11:31:59;100107.28;;;7.70;100.00
46836;BME280;32573;51.290;6.926;2023-12-20T11:34:29;100102.94;;;7.70;100.00
46836;BME280;32573;51.290;6.926;2023-12-20T11:37:02;100101.28;;;7.72;100.00
46836;BME280;32573;51.290;6.926;2023-12-20T11:39:30;100110.84;;;7.72;100.00
46836;BME280;32573;51.290;6.926;2023-12-20T11:42:04;100110.75;;;7.70;100.00
46836;BME280;32573;51.290;6.926;2023-12-20T11:44:33;100103.84;;;7.71;100.00
46836;BME280;32573;51.290;6.926;2023-12-20T11:47:01;100102.16;;;7.71;100.00
46836;BME280;32573;51.290;6.926;2023-12-20T11:49:29;100089.16;;;7.73;100.00
46836;BME280;32573;51.290;6.926;2023-12-20T11:51:58;100083.94;;;7.73;100.00
46836;BME280;32573;51.290;6.926;2023-12-20T11:54:30;100077.94;;;7.74;100.00
46836;BME280;32573;51.290;6.926;2023-12-20T11:56:58;100090.09;;;7.75;100.00
46836;BME280;32573;51.290;6.926;2023-12-20T11:59:26;100076.22;;;7.76;100.00
46836;BME280;32573;51.290;6.926;2023-12-20T12:01:54;100072.81;;;7.77;100.00
46836;BME280;32573;51.290;6.926;2023-12-20T12:04:28;100068.50;;;7.77;100.00
46836;BME280;32573;51.290;6.926;2023-12-20T12:06:56;100072.84;;;7.78;100.00
46836;BME280;32573;51.290;6.926;2023-12-20T12:09:24;100073.78;;;7.79;100.00
46836;BME280;32573;51.290;6.926;2023-12-20T12:11:54;100072.94;;;7.80;100.00
46836;BME280;32573;51.290;6.926;2023-12-20T12:14:22;100071.16;;;7.79;100.00
46836;BME280;32573;51.290;6.926;2023-12-20T12:16:50;100076.38;;;7.79;100.00
46836;BME280;32573;51.290;6.926;2023-12-20T12:19:21;100064.25;;;7.81;100.00
46836;BME280;32573;51.290;6.926;2023-12-20T12:21:49;100063.47;;;7.82;100.00
46836;BME280;32573;51.290;6.926;2023-12-20T12:24:20;100061.81;;;7.84;100.00
46836;BME280;32573;51.290;6.926;2023-12-20T12:26:50;100063.50;;;7.84;100.00
46836;BME280;32573;51.290;6.926;2023-12-20T12:29:20;100060.88;;;7.84;100.00
46836;BME280;32573;51.290;6.926;2023-12-20T12:31:48;100049.59;;;7.83;100.00
46836;BME280;32573;51.290;6.926;2023-12-20T12:34:17;100057.41;;;7.83;100.00
46836;BME280;32573;51.290;6.926;2023-12-20T12:36:46;100051.25;;;7.81;100.00
46836;BME280;32573;51.290;6.926;2023-12-20T12:39:16;100049.41;;;7.78;100.00
46836;BME280;32573;51.290;6.926;2023-12-20T12:41:45;100051.13;;;7.78;100.00
46836;BME280;32573;51.290;6.926;2023-12-20T12:44:13;100049.38;;;7.77;100.00
46836;BME280;32573;51.290;6.926;2023-12-20T12:46:46;100045.03;;;7.77;100.00
46836;BME280;32573;51.290;6.926;2023-12-20T12:49:14;100044.19;;;7.78;100.00
46836;BME280;32573;51.290;6.926;2023-12-20T12:51:42;100047.75;;;7.81;100.00
46836;BME280;32573;51.290;6.926;2023-12-20T12:54:12;100042.53;;;7.81;100.00
46836;BME280;32573;51.290;6.926;2023-12-20T12:56:42;100039.91;;;7.79;100.00
46836;BME280;32573;51.290;6.926;2023-12-20T12:59:11;100046.78;;;7.77;100.00